23.78C
небольшая облачность
небольшая облачность
Дата и времяТемператураДавление, мм рт.ст.Влажность, %Осадки
МинимумМаксимум
23.07.2024 17:0023.78C25.06C76047небольшая облачность
23.07.2024 20:0023.89C24.12C76042переменная облачность
23.07.2024 23:0020.08C21.31C76052переменная облачность
24.07.2024 02:0017.61C17.61C76163небольшая облачность
24.07.2024 05:0016.03C16.03C76165переменная облачность
24.07.2024 08:0016.29C16.29C76165ясно
24.07.2024 11:0021.25C21.25C76048ясно
24.07.2024 14:0025.24C25.24C75935переменная облачность
24.07.2024 17:0027.01C27.01C75933переменная облачность
24.07.2024 20:0025.98C25.98C75837переменная облачность
24.07.2024 23:0022.36C22.36C75852переменная облачность
25.07.2024 02:0019.42C19.42C75970пасмурно
25.07.2024 05:0018.01C18.01C75877облачно с прояснениями
25.07.2024 08:0018.08C18.08C75875небольшой дождь
25.07.2024 11:0021.2C21.2C75860пасмурно
25.07.2024 14:0022.9C22.9C75855небольшой дождь
25.07.2024 17:0025.78C25.78C75732небольшой дождь
25.07.2024 20:0023.2C23.2C75739пасмурно
25.07.2024 23:0020.79C20.79C75847пасмурно
26.07.2024 02:0018.85C18.85C75956пасмурно
26.07.2024 05:0018.08C18.08C75952пасмурно
26.07.2024 08:0016.77C16.77C75958облачно с прояснениями
26.07.2024 11:0020.94C20.94C75938переменная облачность
26.07.2024 14:0023.78C23.78C75928ясно
26.07.2024 17:0025.36C25.36C75926небольшая облачность
26.07.2024 20:0024.35C24.35C75931переменная облачность
26.07.2024 23:0020.28C20.28C76047переменная облачность
27.07.2024 02:0019.22C19.22C76049облачно с прояснениями
27.07.2024 05:0017.26C17.26C76157переменная облачность
27.07.2024 08:0017.15C17.15C76159ясно
27.07.2024 11:0021.27C21.27C76142небольшая облачность
27.07.2024 14:0025.06C25.06C76029небольшая облачность
27.07.2024 17:0026.25C26.25C76026переменная облачность
27.07.2024 20:0025.33C25.33C76033облачно с прояснениями
27.07.2024 23:0022.24C22.24C76152облачно с прояснениями
28.07.2024 02:0019.49C19.49C76165переменная облачность
28.07.2024 05:0018.12C18.12C76171небольшая облачность
28.07.2024 08:0018.01C18.01C76272ясно
28.07.2024 11:0022.41C22.41C76256небольшой дождь
28.07.2024 14:0026.57C26.57C76138ясно
Дата и время наблюдения: 23.07.2024 16:52:50